createdAt,value
2022-09-12T00:01:25.779Z,11.67
2022-09-12T00:03:59.473Z,11.63
2022-09-12T00:06:36.345Z,11.59
2022-09-12T00:09:07.822Z,11.54
2022-09-12T00:11:38.553Z,11.52
2022-09-12T00:14:08.422Z,11.52
2022-09-12T00:16:37.143Z,11.53
2022-09-12T00:19:06.608Z,11.55
2022-09-12T00:21:36.638Z,11.54
2022-09-12T00:24:05.947Z,11.52
2022-09-12T00:26:34.340Z,11.47
2022-09-12T00:29:02.347Z,11.42
2022-09-12T00:31:30.395Z,11.40
2022-09-12T00:34:01.074Z,11.38
2022-09-12T00:36:34.428Z,11.37
2022-09-12T00:39:21.267Z,11.37
2022-09-12T00:41:49.135Z,11.36
2022-09-12T00:44:17.203Z,11.35
2022-09-12T00:47:04.535Z,11.34
2022-09-12T00:49:39.592Z,11.32
2022-09-12T00:52:09.579Z,11.30
2022-09-12T00:54:49.072Z,11.27
2022-09-12T00:57:21.313Z,11.24
2022-09-12T00:59:54.470Z,11.23
2022-09-12T01:02:23.426Z,11.22
2022-09-12T01:04:52.521Z,11.12
2022-09-12T01:07:21.973Z,11.19
2022-09-12T01:09:50.078Z,11.19
2022-09-12T01:12:18.191Z,11.17
2022-09-12T01:14:46.158Z,11.20
2022-09-12T01:17:15.575Z,11.21
2022-09-12T01:19:53.453Z,11.23
2022-09-12T01:22:56.966Z,11.23
2022-09-12T01:25:49.517Z,11.22
2022-09-12T01:28:52.843Z,11.21
2022-09-12T01:31:34.213Z,11.22
2022-09-12T01:34:28.760Z,11.23
2022-09-12T01:37:17.515Z,11.23
2022-09-12T01:40:00.934Z,11.24
2022-09-12T01:42:40.653Z,11.24
2022-09-12T01:45:09.393Z,11.23
2022-09-12T01:47:41.675Z,11.21
2022-09-12T01:50:19.093Z,11.20
2022-09-12T01:53:02.269Z,11.20
2022-09-12T01:55:37.449Z,11.21
2022-09-12T01:58:12.436Z,11.20
2022-09-12T02:01:15.240Z,11.20
2022-09-12T02:03:51.924Z,11.22
2022-09-12T02:06:26.380Z,11.21
2022-09-12T02:09:29.987Z,11.22
2022-09-12T02:12:00.507Z,11.20
2022-09-12T02:14:32.555Z,11.21
2022-09-12T02:17:25.073Z,11.20
2022-09-12T02:19:52.842Z,11.20
2022-09-12T02:22:25.596Z,11.19
2022-09-12T02:24:59.326Z,11.18
2022-09-12T02:28:09.251Z,11.18
2022-09-12T02:30:56.556Z,11.16
2022-09-12T02:33:38.992Z,11.14
2022-09-12T02:36:24.331Z,11.11
2022-09-12T02:38:54.034Z,11.07
2022-09-12T02:41:23.038Z,11.05
2022-09-12T02:43:52.661Z,11.03
2022-09-12T02:46:43.153Z,11.01
2022-09-12T02:49:12.024Z,10.90
2022-09-12T02:51:41.163Z,10.98
2022-09-12T02:54:10.344Z,10.97
2022-09-12T02:56:42.832Z,10.95
2022-09-12T02:59:16.664Z,10.84
2022-09-12T03:02:15.037Z,10.91
2022-09-12T03:04:53.523Z,10.90
2022-09-12T03:07:40.319Z,10.89
2022-09-12T03:10:37.619Z,10.88
2022-09-12T03:13:14.481Z,10.86
2022-09-12T03:16:00.871Z,10.84
2022-09-12T03:18:43.825Z,10.73
2022-09-12T03:21:44.374Z,10.80
2022-09-12T03:24:21.608Z,10.78
2022-09-12T03:27:18.999Z,10.77
2022-09-12T03:29:49.047Z,10.75
2022-09-12T03:32:17.306Z,10.74
2022-09-12T03:34:45.924Z,10.74
2022-09-12T03:37:13.940Z,10.73
2022-09-12T03:39:41.916Z,10.74
2022-09-12T03:42:09.916Z,10.56
2022-09-12T03:44:37.836Z,10.74
2022-09-12T03:47:10.574Z,10.64
2022-09-12T03:49:39.211Z,10.72
2022-09-12T03:52:07.384Z,10.72
2022-09-12T03:54:35.318Z,10.72
2022-09-12T03:57:03.844Z,10.71
2022-09-12T03:59:32.704Z,10.68
2022-09-12T04:02:01.109Z,10.71
2022-09-12T04:04:30.196Z,10.62
2022-09-12T04:06:59.324Z,10.73
2022-09-12T04:09:27.217Z,10.73
2022-09-12T04:11:55.360Z,10.72
2022-09-12T04:14:23.267Z,10.72
2022-09-12T04:16:51.324Z,10.72
2022-09-12T04:19:19.234Z,10.73
2022-09-12T04:21:47.561Z,10.73
2022-09-12T04:24:15.599Z,10.74
2022-09-12T04:26:44.592Z,10.75
2022-09-12T04:29:15.301Z,10.74
2022-09-12T04:31:43.358Z,10.74
2022-09-12T04:34:11.925Z,10.74
2022-09-12T04:36:40.158Z,10.76
2022-09-12T04:39:08.763Z,10.76
2022-09-12T04:41:40.649Z,10.76
2022-09-12T04:44:13.028Z,10.76
2022-09-12T04:46:45.511Z,10.76
2022-09-12T04:49:16.486Z,10.77
2022-09-12T04:51:44.534Z,10.77
2022-09-12T04:54:19.038Z,10.77
2022-09-12T04:56:49.519Z,10.58
2022-09-12T04:59:20.127Z,10.79
2022-09-12T05:01:48.798Z,10.81
2022-09-12T05:04:17.365Z,10.81
2022-09-12T05:06:47.560Z,10.81
2022-09-12T05:09:19.577Z,10.81
2022-09-12T05:12:03.650Z,10.80
2022-09-12T05:14:33.203Z,10.79
2022-09-12T05:17:02.409Z,10.79
2022-09-12T05:19:31.570Z,10.80
2022-09-12T05:22:00.284Z,10.79
2022-09-12T05:24:28.471Z,10.78
2022-09-12T05:26:56.599Z,10.79
2022-09-12T05:29:25.736Z,10.79
2022-09-12T05:31:53.883Z,10.74
2022-09-12T05:34:22.934Z,10.79
2022-09-12T05:36:52.307Z,10.80
2022-09-12T05:39:21.055Z,10.82
2022-09-12T05:41:49.089Z,10.82
2022-09-12T05:44:18.085Z,10.86
2022-09-12T05:46:50.658Z,10.87
2022-09-12T05:49:18.932Z,10.89
2022-09-12T05:51:46.875Z,10.91
2022-09-12T05:54:18.097Z,10.92
2022-09-12T05:56:47.409Z,10.95
2022-09-12T05:59:21.033Z,10.98
2022-09-12T06:01:49.329Z,11.01
2022-09-12T06:04:17.852Z,11.02
2022-09-12T06:06:46.430Z,11.04
2022-09-12T06:09:16.382Z,11.06
2022-09-12T06:11:46.111Z,11.09
2022-09-12T06:14:17.771Z,11.11
2022-09-12T06:16:47.451Z,11.13
2022-09-12T06:19:19.135Z,11.13
2022-09-12T06:21:49.757Z,11.14
2022-09-12T06:24:18.862Z,11.16
2022-09-12T06:26:52.929Z,11.16
2022-09-12T06:29:22.092Z,11.16
2022-09-12T06:31:49.875Z,11.18
2022-09-12T06:34:17.892Z,11.19
2022-09-12T06:36:48.876Z,11.19
2022-09-12T06:39:21.940Z,11.19
2022-09-12T06:41:51.586Z,11.20
2022-09-12T06:44:21.592Z,11.21
2022-09-12T06:46:50.208Z,11.21
2022-09-12T06:49:18.798Z,11.22
2022-09-12T06:51:46.799Z,11.23
2022-09-12T06:54:17.418Z,11.24
2022-09-12T06:56:45.766Z,11.24
2022-09-12T06:59:13.752Z,11.23
2022-09-12T07:01:42.097Z,11.24
2022-09-12T07:04:11.574Z,11.25
2022-09-12T07:06:42.208Z,11.25
2022-09-12T07:09:13.758Z,11.26
2022-09-12T07:11:42.984Z,11.18
2022-09-12T07:14:14.217Z,11.18
2022-09-12T07:16:42.891Z,11.27
2022-09-12T07:19:11.651Z,11.29
2022-09-12T07:21:41.337Z,11.32
2022-09-12T07:24:11.095Z,11.18
2022-09-12T07:26:42.513Z,11.34
2022-09-12T07:32:06.068Z,11.39
2022-09-12T07:34:36.089Z,11.41
2022-09-12T07:37:05.180Z,11.43
2022-09-12T07:39:33.208Z,11.45
2022-09-12T07:42:01.478Z,11.49
2022-09-12T07:44:31.022Z,11.50
2022-09-12T07:46:58.847Z,11.42
2022-09-12T07:49:26.791Z,11.52
2022-09-12T07:51:54.647Z,11.53
2022-09-12T07:54:23.207Z,11.55
2022-09-12T07:56:51.942Z,11.56
2022-09-12T07:59:35.716Z,11.59
2022-09-12T08:02:17.035Z,11.62
2022-09-12T08:04:45.549Z,11.64
2022-09-12T08:07:13.807Z,11.66
2022-09-12T08:09:41.892Z,11.69
2022-09-12T08:12:11.176Z,11.72
2022-09-12T08:14:41.042Z,11.75
2022-09-12T08:17:09.947Z,11.78
2022-09-12T08:19:38.956Z,11.81
2022-09-12T08:22:06.836Z,11.84
2022-09-12T08:24:34.824Z,11.66
2022-09-12T08:27:02.845Z,11.91
2022-09-12T08:29:30.945Z,11.91
2022-09-12T08:31:58.937Z,11.95
2022-09-12T08:34:27.098Z,11.88
2022-09-12T08:36:55.082Z,12.03
2022-09-12T08:39:24.991Z,12.07
2022-09-12T08:42:02.659Z,12.12
2022-09-12T08:44:59.538Z,12.17
2022-09-12T08:47:32.873Z,12.22
2022-09-12T08:50:10.206Z,12.29
2022-09-12T08:52:56.025Z,12.35
2022-09-12T08:55:24.148Z,12.42
2022-09-12T08:57:53.136Z,12.48
2022-09-12T09:00:21.976Z,12.53
2022-09-12T09:03:10.776Z,12.58
2022-09-12T09:05:50.015Z,12.64
2022-09-12T09:08:32.385Z,12.69
2022-09-12T09:11:05.338Z,12.75
2022-09-12T09:14:17.687Z,12.81
2022-09-12T09:16:48.396Z,12.84
2022-09-12T09:19:27.316Z,12.92
2022-09-12T09:22:32.545Z,12.98
2022-09-12T09:25:08.211Z,13.03
2022-09-12T09:27:58.738Z,13.07
2022-09-12T09:30:28.968Z,13.11
2022-09-12T09:33:03.139Z,13.13
2022-09-12T09:35:45.975Z,13.15
2022-09-12T09:38:22.781Z,13.17
2022-09-12T09:41:28.647Z,13.16
2022-09-12T09:43:58.112Z,13.23
2022-09-12T09:46:27.344Z,13.25
2022-09-12T09:48:59.620Z,13.28
2022-09-12T09:51:34.589Z,13.28
2022-09-12T09:54:43.312Z,13.34
2022-09-12T09:57:39.285Z,13.38
2022-09-12T10:00:27.624Z,13.41
2022-09-12T10:03:00.355Z,13.43
2022-09-12T10:05:29.470Z,13.46
2022-09-12T10:07:57.426Z,13.49
2022-09-12T10:10:25.817Z,13.53
2022-09-12T10:13:22.608Z,13.57
2022-09-12T10:16:07.461Z,13.61
2022-09-12T10:18:42.653Z,13.64
2022-09-12T10:21:23.605Z,13.58
2022-09-12T10:24:13.786Z,13.69
2022-09-12T10:26:43.406Z,13.73
2022-09-12T10:29:17.654Z,13.76
2022-09-12T10:31:54.432Z,13.80
2022-09-12T10:34:34.078Z,13.82
2022-09-12T10:37:08.303Z,13.85
2022-09-12T10:39:38.936Z,13.87
2022-09-12T10:42:15.099Z,13.89
2022-09-12T10:44:56.735Z,13.91
2022-09-12T10:47:31.444Z,13.94
2022-09-12T10:50:23.278Z,13.97
2022-09-12T10:52:51.553Z,14.00
2022-09-12T10:55:26.237Z,14.02
2022-09-12T10:58:10.820Z,14.04
2022-09-12T11:00:44.983Z,14.06
2022-09-12T11:03:38.679Z,14.06
2022-09-12T11:06:09.011Z,14.07
2022-09-12T11:09:14.661Z,14.09
2022-09-12T11:11:58.115Z,14.10
2022-09-12T11:14:41.084Z,14.12
2022-09-12T11:17:34.325Z,14.14
2022-09-12T11:20:21.176Z,14.15
2022-09-12T11:23:06.900Z,14.16
2022-09-12T11:25:45.489Z,14.18
2022-09-12T11:28:36.768Z,14.20
2022-09-12T11:31:41.326Z,14.22
2022-09-12T11:34:18.423Z,14.15
2022-09-12T11:37:21.439Z,14.25
2022-09-12T11:39:55.576Z,14.28
2022-09-12T11:42:32.204Z,14.31
2022-09-12T11:45:13.625Z,14.33
2022-09-12T11:47:44.914Z,14.34
2022-09-12T11:50:27.219Z,14.36
2022-09-12T11:53:05.278Z,14.37
2022-09-12T11:56:04.532Z,14.39
2022-09-12T11:58:32.812Z,14.40
2022-09-12T12:01:16.368Z,14.39
2022-09-12T12:03:52.799Z,14.40
2022-09-12T12:06:40.060Z,14.41
2022-09-12T12:09:08.587Z,14.41
2022-09-12T12:11:48.959Z,14.42
2022-09-12T12:14:31.493Z,14.44
2022-09-12T12:16:59.977Z,14.46
2022-09-12T12:19:36.943Z,14.37
2022-09-12T12:22:09.408Z,14.52
2022-09-12T12:25:06.666Z,14.54
2022-09-12T12:27:57.005Z,14.58
2022-09-12T12:30:30.599Z,14.61
2022-09-12T12:33:13.572Z,14.65
2022-09-12T12:36:02.547Z,14.71
2022-09-12T12:38:40.956Z,14.76
2022-09-12T12:41:18.178Z,14.79
2022-09-12T12:43:51.213Z,14.83
2022-09-12T12:46:21.571Z,14.86
2022-09-12T12:48:55.146Z,14.91
2022-09-12T12:51:41.379Z,14.94
2022-09-12T12:54:31.544Z,14.97
2022-09-12T12:57:26.208Z,14.94
2022-09-12T13:00:02.640Z,15.00
2022-09-12T13:02:34.679Z,15.02
2022-09-12T13:05:06.798Z,15.04
2022-09-12T13:07:40.390Z,15.06
2022-09-12T13:10:08.821Z,15.08
2022-09-12T13:12:46.382Z,15.08
2022-09-12T13:15:37.046Z,15.14
2022-09-12T13:18:17.182Z,15.16
2022-09-12T13:21:16.511Z,15.10
2022-09-12T13:23:45.690Z,15.18
2022-09-12T13:26:22.862Z,15.18
2022-09-12T13:28:51.749Z,15.19
2022-09-12T13:31:31.196Z,15.20
2022-09-12T13:34:04.820Z,15.19
2022-09-12T13:37:10.395Z,15.19
2022-09-12T13:39:50.099Z,15.18
2022-09-12T13:42:37.354Z,15.19
2022-09-12T13:45:23.219Z,15.20
2022-09-12T13:48:00.459Z,15.20
2022-09-12T13:51:29.316Z,15.21
2022-09-12T13:54:30.962Z,15.24
2022-09-12T13:56:59.879Z,15.28
2022-09-12T13:59:28.113Z,15.31
2022-09-12T14:01:56.206Z,15.35
2022-09-12T14:04:45.474Z,15.37
2022-09-12T14:07:25.896Z,15.39
2022-09-12T14:09:59.694Z,15.43
2022-09-12T14:12:40.774Z,15.45
2022-09-12T14:15:19.795Z,15.47
2022-09-12T14:17:55.034Z,15.52
2022-09-12T14:20:24.472Z,15.56
2022-09-12T14:22:54.566Z,15.60
2022-09-12T14:25:30.294Z,15.65
2022-09-12T14:27:58.648Z,15.61
2022-09-12T14:30:28.623Z,15.76
2022-09-12T14:33:11.945Z,15.81
2022-09-12T14:35:45.933Z,15.85
2022-09-12T14:38:17.563Z,15.87
2022-09-12T14:41:21.314Z,15.81
2022-09-12T14:43:54.775Z,15.93
2022-09-12T14:46:27.504Z,15.95
2022-09-12T14:49:01.085Z,15.96
2022-09-12T14:51:34.130Z,15.96
2022-09-12T14:54:02.920Z,15.94
2022-09-12T14:56:53.054Z,15.94
2022-09-12T14:59:35.596Z,15.93
2022-09-12T15:02:21.946Z,15.92
2022-09-12T15:05:15.851Z,15.91
2022-09-12T15:07:56.264Z,15.91
2022-09-12T15:10:34.542Z,15.90
2022-09-12T15:13:05.572Z,15.78
2022-09-12T15:15:34.160Z,15.88
2022-09-12T15:18:06.349Z,15.78
2022-09-12T15:20:39.078Z,15.82
2022-09-12T15:23:15.380Z,15.85
2022-09-12T15:25:43.271Z,15.83
2022-09-12T15:28:22.911Z,15.81
2022-09-12T15:30:54.077Z,15.80
2022-09-12T15:33:25.023Z,15.77
2022-09-12T15:35:53.555Z,15.76
2022-09-12T15:38:26.155Z,15.74
2022-09-12T15:40:56.083Z,15.72
2022-09-12T15:43:26.295Z,15.71
2022-09-12T15:45:54.431Z,15.62
2022-09-12T15:48:22.736Z,15.66
2022-09-12T15:50:50.707Z,15.63
2022-09-12T15:53:19.126Z,15.60
2022-09-12T15:55:47.265Z,15.58
2022-09-12T15:58:15.418Z,15.56
2022-09-12T16:00:43.402Z,15.55
2022-09-12T16:03:24.011Z,15.52
2022-09-12T16:06:01.731Z,15.49
2022-09-12T16:08:31.663Z,15.48
2022-09-12T16:11:04.089Z,15.46
2022-09-12T16:13:32.268Z,15.43
2022-09-12T16:16:01.258Z,15.41
2022-09-12T16:18:29.385Z,15.39
2022-09-12T16:20:57.771Z,15.38
2022-09-12T16:23:25.860Z,15.36
2022-09-12T16:28:45.180Z,15.34
2022-09-12T16:31:14.453Z,15.33
2022-09-12T16:33:42.450Z,15.32
2022-09-12T16:36:16.424Z,15.30
2022-09-12T16:38:50.082Z,15.27
2022-09-12T16:41:19.925Z,15.23
2022-09-12T16:43:48.137Z,15.19
2022-09-12T16:46:19.263Z,15.16
2022-09-12T16:48:52.544Z,15.12
2022-09-12T16:51:23.932Z,15.09
2022-09-12T16:53:52.794Z,15.06
2022-09-12T16:56:21.225Z,15.03
2022-09-12T16:58:50.013Z,15.01
2022-09-12T17:01:21.434Z,14.95
2022-09-12T17:03:57.197Z,14.71
2022-09-12T17:06:26.190Z,14.94
2022-09-12T17:08:59.238Z,14.81
2022-09-12T17:11:31.188Z,14.87
2022-09-12T17:14:04.994Z,14.86
2022-09-12T17:16:39.282Z,14.86
2022-09-12T17:19:12.757Z,14.85
2022-09-12T17:21:40.902Z,14.80
2022-09-12T17:24:09.060Z,14.70
2022-09-12T17:26:37.002Z,14.80
2022-09-12T17:29:05.511Z,14.79
2022-09-12T17:31:34.248Z,14.77
2022-09-12T17:34:05.343Z,14.74
2022-09-12T17:36:34.672Z,14.62
2022-09-12T17:39:04.919Z,14.68
2022-09-12T17:41:33.807Z,14.58
2022-09-12T17:44:03.699Z,14.65
2022-09-12T17:46:37.047Z,14.64
2022-09-12T17:49:09.767Z,14.62
2022-09-12T17:51:38.444Z,14.59
2022-09-12T17:54:12.345Z,14.56
2022-09-12T17:56:40.594Z,14.54
2022-09-12T17:59:13.831Z,14.52
2022-09-12T18:02:02.008Z,14.50
2022-09-12T18:04:41.631Z,14.48
2022-09-12T18:07:09.857Z,14.45
2022-09-12T18:09:39.102Z,14.41
2022-09-12T18:12:17.067Z,14.38
2022-09-12T18:14:45.888Z,14.35
2022-09-12T18:17:13.819Z,14.34
2022-09-12T18:19:41.777Z,14.34
2022-09-12T18:22:10.928Z,14.32
2022-09-12T18:24:40.274Z,14.33
2022-09-12T18:27:08.283Z,14.33
2022-09-12T18:29:36.545Z,14.32
2022-09-12T18:32:04.419Z,14.30
2022-09-12T18:34:32.641Z,14.26
2022-09-12T18:37:02.107Z,14.21
2022-09-12T18:39:30.341Z,14.25
2022-09-12T18:41:58.369Z,14.23
2022-09-12T18:44:26.725Z,14.21
2022-09-12T18:46:54.929Z,14.18
2022-09-12T18:49:23.401Z,14.18
2022-09-12T18:51:51.900Z,14.17
2022-09-12T18:54:21.053Z,14.15
2022-09-12T18:56:49.492Z,14.13
2022-09-12T18:59:18.004Z,14.12
2022-09-12T19:01:48.781Z,14.11
2022-09-12T19:04:17.491Z,14.10
2022-09-12T19:06:48.275Z,14.08
2022-09-12T19:09:19.035Z,14.08
2022-09-12T19:11:50.786Z,13.97
2022-09-12T19:14:22.741Z,14.03
2022-09-12T19:16:52.262Z,14.01
2022-09-12T19:19:21.345Z,13.99
2022-09-12T19:21:49.488Z,13.98
2022-09-12T19:24:18.062Z,13.95
2022-09-12T19:26:46.095Z,13.93
2022-09-12T19:29:16.692Z,13.90
2022-09-12T19:31:45.319Z,13.88
2022-09-12T19:34:15.980Z,13.86
2022-09-12T19:36:46.689Z,13.83
2022-09-12T19:39:20.009Z,13.80
2022-09-12T19:41:49.420Z,13.78
2022-09-12T19:44:19.474Z,13.76
2022-09-12T19:46:47.741Z,13.74
2022-09-12T19:49:15.909Z,13.72
2022-09-12T19:51:44.162Z,13.69
2022-09-12T19:54:12.425Z,13.64
2022-09-12T19:56:40.546Z,13.59
2022-09-12T19:59:09.333Z,13.56
2022-09-12T20:01:40.004Z,13.50
2022-09-12T20:04:16.902Z,13.45
2022-09-12T20:06:48.109Z,13.39
2022-09-12T20:09:16.317Z,13.33
2022-09-12T20:11:45.440Z,13.27
2022-09-12T20:14:13.436Z,13.21
2022-09-12T20:16:41.505Z,13.14
2022-09-12T20:19:10.544Z,13.08
2022-09-12T20:21:39.726Z,13.04
2022-09-12T20:24:12.227Z,13.01
2022-09-12T20:26:41.367Z,12.98
2022-09-12T20:29:11.136Z,12.93
2022-09-12T20:31:42.880Z,12.88
2022-09-12T20:34:16.330Z,12.82
2022-09-12T20:36:48.383Z,12.75
2022-09-12T20:39:20.986Z,12.68
2022-09-12T20:41:49.106Z,12.61
2022-09-12T20:44:17.725Z,12.57
2022-09-12T20:46:46.419Z,12.53
2022-09-12T20:49:19.333Z,12.50
2022-09-12T20:51:48.676Z,12.46
2022-09-12T20:54:17.852Z,12.42
2022-09-12T20:56:45.780Z,12.37
2022-09-12T20:59:13.837Z,12.32
2022-09-12T21:01:46.284Z,12.26
2022-09-12T21:04:15.323Z,12.21
2022-09-12T21:09:42.556Z,12.14
2022-09-12T21:12:12.169Z,12.08
2022-09-12T21:14:39.924Z,12.05
2022-09-12T21:17:07.733Z,12.02
2022-09-12T21:19:36.924Z,11.99
2022-09-12T21:22:04.661Z,11.95
2022-09-12T21:24:32.688Z,11.90
2022-09-12T21:27:04.623Z,11.85
2022-09-12T21:29:34.887Z,11.80
2022-09-12T21:32:02.824Z,11.75
2022-09-12T21:34:30.582Z,11.70
2022-09-12T21:36:58.775Z,11.64
2022-09-12T21:39:26.492Z,11.59
2022-09-12T21:41:54.198Z,11.53
2022-09-12T21:44:22.637Z,11.46
2022-09-12T21:46:50.687Z,11.40
2022-09-12T21:49:18.512Z,11.35
2022-09-12T21:51:46.471Z,11.30
2022-09-12T21:54:14.238Z,11.25
2022-09-12T21:56:42.097Z,11.18
2022-09-12T21:59:10.325Z,11.13
2022-09-12T22:01:38.093Z,11.06
2022-09-12T22:04:05.918Z,10.92
2022-09-12T22:06:34.992Z,10.95
2022-09-12T22:09:04.609Z,10.90
2022-09-12T22:11:33.494Z,10.83
2022-09-12T22:14:01.641Z,10.76
2022-09-12T22:16:30.060Z,10.71
2022-09-12T22:18:58.414Z,10.67
2022-09-12T22:21:26.970Z,10.62
2022-09-12T22:24:13.407Z,10.55
2022-09-12T22:26:46.517Z,10.46
2022-09-12T22:29:14.589Z,10.40
2022-09-12T22:31:43.104Z,10.36
2022-09-12T22:34:11.147Z,10.30
2022-09-12T22:36:39.500Z,10.26
2022-09-12T22:39:08.299Z,10.22
2022-09-12T22:41:37.281Z,10.17
2022-09-12T22:44:05.705Z,10.11
2022-09-12T22:46:33.845Z,10.05
2022-09-12T22:49:02.403Z,9.99
2022-09-12T22:51:30.664Z,9.91
2022-09-12T22:53:59.160Z,9.89
2022-09-12T22:56:27.736Z,9.83
2022-09-12T22:58:55.934Z,9.80
2022-09-12T23:01:24.218Z,9.69
2022-09-12T23:03:54.213Z,9.70
2022-09-12T23:06:21.899Z,9.66
2022-09-12T23:08:49.595Z,9.61
2022-09-12T23:11:19.415Z,9.58
2022-09-12T23:13:49.164Z,9.55
2022-09-12T23:16:19.952Z,9.52
2022-09-12T23:18:48.752Z,9.51
2022-09-12T23:21:19.415Z,9.48
2022-09-12T23:23:47.690Z,9.44
2022-09-12T23:26:21.616Z,9.39
2022-09-12T23:28:55.594Z,9.35
2022-09-12T23:31:25.989Z,9.32
2022-09-12T23:33:54.672Z,9.27
2022-09-12T23:36:23.645Z,9.20
2022-09-12T23:38:52.139Z,9.18
2022-09-12T23:41:20.422Z,9.17
2022-09-12T23:43:48.751Z,9.16
2022-09-12T23:46:22.799Z,9.13
2022-09-12T23:48:53.320Z,9.12
2022-09-12T23:51:22.085Z,9.09
2022-09-12T23:53:50.097Z,9.05
2022-09-12T23:56:17.864Z,9.05
2022-09-12T23:58:45.614Z,8.98
